createdAt,value
2022-08-07T00:01:44.232Z,13.30
2022-08-07T00:04:05.925Z,13.30
2022-08-07T00:06:33.898Z,13.30
2022-08-07T00:09:16.287Z,13.30
2022-08-07T00:11:54.071Z,13.30
2022-08-07T00:14:25.331Z,13.30
2022-08-07T00:16:52.786Z,13.30
2022-08-07T00:19:21.385Z,13.20
2022-08-07T00:21:56.024Z,13.20
2022-08-07T00:24:24.618Z,13.20
2022-08-07T00:27:06.199Z,13.20
2022-08-07T00:29:33.865Z,13.20
2022-08-07T00:32:05.932Z,13.20
2022-08-07T00:34:35.535Z,13.20
2022-08-07T00:37:05.119Z,13.30
2022-08-07T00:39:32.591Z,13.30
2022-08-07T00:42:02.121Z,13.30
2022-08-07T00:44:33.022Z,13.30
2022-08-07T00:47:00.863Z,13.30
2022-08-07T00:50:20.193Z,13.30
2022-08-07T00:52:17.642Z,13.30
2022-08-07T00:54:53.858Z,13.30
2022-08-07T00:57:25.919Z,13.20
2022-08-07T00:59:53.405Z,13.20
2022-08-07T01:02:29.242Z,13.20
2022-08-07T01:04:58.555Z,13.20
2022-08-07T01:07:27.925Z,13.20
2022-08-07T01:10:06.280Z,13.20
2022-08-07T01:12:37.957Z,13.10
2022-08-07T01:15:06.514Z,13.10
2022-08-07T01:17:40.021Z,13.10
2022-08-07T01:20:16.756Z,13.10
2022-08-07T01:22:54.121Z,13.10
2022-08-07T01:25:40.288Z,13.10
2022-08-07T01:28:15.549Z,13.10
2022-08-07T01:30:42.675Z,13.00
2022-08-07T01:33:09.789Z,13.00
2022-08-07T01:35:53.525Z,13.00
2022-08-07T01:38:25.178Z,13.00
2022-08-07T01:40:54.696Z,13.00
2022-08-07T01:43:21.889Z,12.90
2022-08-07T01:45:54.482Z,12.90
2022-08-07T01:48:29.726Z,12.80
2022-08-07T01:50:58.985Z,12.80
2022-08-07T01:54:08.775Z,12.80
2022-08-07T01:56:49.145Z,12.80
2022-08-07T01:59:22.139Z,12.80
2022-08-07T02:01:59.970Z,12.80
2022-08-07T02:04:36.281Z,12.80
2022-08-07T02:07:04.244Z,12.80
2022-08-07T02:09:51.885Z,12.70
2022-08-07T02:12:29.095Z,12.70
2022-08-07T02:14:58.633Z,12.60
2022-08-07T02:17:34.004Z,12.60
2022-08-07T02:20:07.508Z,12.60
2022-08-07T02:22:41.497Z,12.60
2022-08-07T02:25:17.385Z,12.60
2022-08-07T02:27:51.927Z,12.50
2022-08-07T02:30:20.455Z,12.50
2022-08-07T02:33:03.657Z,12.50
2022-08-07T02:36:30.777Z,12.40
2022-08-07T02:38:28.221Z,12.40
2022-08-07T02:41:00.312Z,12.50
2022-08-07T02:43:28.314Z,12.40
2022-08-07T02:46:02.347Z,12.40
2022-08-07T02:48:30.326Z,12.30
2022-08-07T02:50:58.943Z,12.40
2022-08-07T02:53:28.211Z,12.30
2022-08-07T02:56:03.497Z,12.40
2022-08-07T02:58:34.037Z,12.30
2022-08-07T03:01:02.189Z,12.30
2022-08-07T03:03:49.341Z,12.30
2022-08-07T03:06:25.579Z,12.30
2022-08-07T03:08:53.449Z,12.30
2022-08-07T03:11:21.106Z,12.30
2022-08-07T03:13:57.497Z,12.30
2022-08-07T03:16:29.355Z,12.30
2022-08-07T03:18:58.307Z,12.30
2022-08-07T03:21:25.651Z,12.30
2022-08-07T03:24:20.625Z,12.30
2022-08-07T03:26:50.890Z,12.30
2022-08-07T03:29:25.355Z,12.20
2022-08-07T03:31:56.100Z,12.20
2022-08-07T03:34:27.152Z,12.20
2022-08-07T03:36:55.131Z,12.20
2022-08-07T03:39:46.128Z,12.20
2022-08-07T03:42:12.825Z,12.20
2022-08-07T03:44:40.352Z,12.20
2022-08-07T03:47:13.854Z,12.10
2022-08-07T03:49:42.562Z,12.10
2022-08-07T03:52:22.838Z,12.10
2022-08-07T03:54:57.313Z,12.00
2022-08-07T03:58:34.821Z,12.10
2022-08-07T04:00:20.907Z,12.10
2022-08-07T04:02:49.414Z,12.00
2022-08-07T04:05:19.798Z,12.00
2022-08-07T04:07:51.567Z,12.00
2022-08-07T04:10:19.916Z,12.10
2022-08-07T04:12:48.957Z,12.00
2022-08-07T04:15:17.564Z,12.10
2022-08-07T04:18:30.730Z,12.20
2022-08-07T04:20:32.401Z,12.20
2022-08-07T04:23:06.653Z,12.30
2022-08-07T04:25:39.004Z,12.30
2022-08-07T04:28:08.118Z,12.40
2022-08-07T04:30:43.540Z,12.30
2022-08-07T04:33:23.190Z,12.40
2022-08-07T04:35:51.187Z,12.40
2022-08-07T04:38:19.025Z,12.40
2022-08-07T04:40:52.124Z,12.50
2022-08-07T04:44:10.687Z,12.50
2022-08-07T04:46:29.544Z,12.50
2022-08-07T04:49:18.350Z,12.60
2022-08-07T04:51:56.788Z,12.70
2022-08-07T04:54:36.867Z,12.70
2022-08-07T04:58:12.381Z,12.80
2022-08-07T05:00:17.191Z,12.80
2022-08-07T05:02:54.912Z,12.90
2022-08-07T05:05:52.916Z,13.00
2022-08-07T05:08:59.243Z,13.10
2022-08-07T05:11:19.391Z,13.20
2022-08-07T05:14:53.975Z,13.20
2022-08-07T05:16:52.921Z,13.20
2022-08-07T05:19:25.751Z,13.30
2022-08-07T05:22:01.965Z,13.30
2022-08-07T05:24:39.545Z,13.40
2022-08-07T05:28:01.797Z,13.50
2022-08-07T05:29:56.793Z,13.50
2022-08-07T05:32:26.535Z,13.60
2022-08-07T05:34:53.812Z,13.70
2022-08-07T05:37:26.594Z,13.80
2022-08-07T05:40:17.253Z,13.90
2022-08-07T05:42:41.365Z,13.90
2022-08-07T05:45:46.324Z,14.00
2022-08-07T05:48:11.206Z,14.10
2022-08-07T05:50:42.619Z,14.20
2022-08-07T05:54:13.135Z,14.30
2022-08-07T05:56:03.071Z,14.30
2022-08-07T05:58:36.704Z,14.40
2022-08-07T06:01:05.107Z,14.50
2022-08-07T06:03:54.015Z,14.60
2022-08-07T06:06:21.240Z,14.70
2022-08-07T06:08:49.384Z,14.70
2022-08-07T06:11:18.990Z,14.80
2022-08-07T06:14:12.787Z,14.80
2022-08-07T06:16:35.506Z,14.90
2022-08-07T06:19:03.781Z,15.00
2022-08-07T06:22:14.500Z,15.10
2022-08-07T06:24:39.206Z,15.10
2022-08-07T06:27:07.870Z,15.10
2022-08-07T06:29:35.216Z,15.10
2022-08-07T06:32:06.915Z,15.10
2022-08-07T06:34:34.323Z,15.20
2022-08-07T06:37:02.866Z,15.30
2022-08-07T06:40:13.177Z,15.30
2022-08-07T06:42:34.857Z,15.30
2022-08-07T06:45:02.980Z,15.40
2022-08-07T06:47:48.177Z,15.50
2022-08-07T06:50:17.650Z,15.70
2022-08-07T06:52:48.271Z,15.90
2022-08-07T06:55:34.451Z,16.00
2022-08-07T06:58:11.151Z,16.20
2022-08-07T07:00:39.517Z,16.20
2022-08-07T07:03:13.663Z,16.20
2022-08-07T07:06:03.283Z,16.20
2022-08-07T07:08:29.837Z,16.10
2022-08-07T07:10:58.979Z,16.10
2022-08-07T07:13:56.031Z,16.10
2022-08-07T07:16:19.829Z,16.10
2022-08-07T07:18:52.106Z,16.30
2022-08-07T07:21:20.811Z,16.30
2022-08-07T07:24:08.043Z,16.30
2022-08-07T07:26:38.012Z,16.40
2022-08-07T07:29:56.341Z,16.50
2022-08-07T07:32:03.362Z,16.60
2022-08-07T07:34:31.865Z,16.60
2022-08-07T07:37:14.698Z,16.70
2022-08-07T07:39:54.246Z,16.90
2022-08-07T07:42:25.921Z,16.90
2022-08-07T07:45:04.419Z,16.90
2022-08-07T07:47:52.052Z,17.00
2022-08-07T07:50:34.218Z,17.00
2022-08-07T07:53:13.709Z,17.10
2022-08-07T07:55:57.595Z,17.20
2022-08-07T07:58:37.117Z,17.40
2022-08-07T08:02:02.806Z,17.40
2022-08-07T08:04:09.366Z,17.40
2022-08-07T08:06:38.030Z,17.40
2022-08-07T08:09:05.394Z,17.40
2022-08-07T08:11:59.208Z,17.50
2022-08-07T08:14:26.238Z,17.50
2022-08-07T08:16:54.370Z,17.50
2022-08-07T08:20:17.302Z,17.60
2022-08-07T08:22:33.061Z,17.60
2022-08-07T08:25:27.070Z,17.60
2022-08-07T08:28:09.809Z,17.90
2022-08-07T08:30:42.593Z,17.90
2022-08-07T08:33:19.067Z,17.90
2022-08-07T08:35:50.933Z,18.00
2022-08-07T08:38:19.942Z,18.00
2022-08-07T08:41:07.071Z,18.00
2022-08-07T08:43:41.989Z,18.00
2022-08-07T08:46:27.345Z,18.00
2022-08-07T08:49:02.115Z,18.10
2022-08-07T08:52:13.139Z,18.10
2022-08-07T08:54:25.496Z,18.20
2022-08-07T08:56:53.998Z,18.30
2022-08-07T08:59:24.442Z,18.30
2022-08-07T09:02:04.659Z,18.30
2022-08-07T09:05:11.447Z,18.30
2022-08-07T09:07:58.244Z,18.30
2022-08-07T09:10:32.809Z,18.30
2022-08-07T09:13:18.377Z,18.40
2022-08-07T09:16:21.701Z,18.40
2022-08-07T09:19:00.593Z,18.40
2022-08-07T09:22:22.332Z,18.50
2022-08-07T09:24:55.975Z,18.50
2022-08-07T09:27:38.426Z,18.60
2022-08-07T09:30:27.957Z,18.70
2022-08-07T09:33:05.551Z,18.70
2022-08-07T09:36:05.783Z,18.70
2022-08-07T09:38:53.704Z,18.70
2022-08-07T09:41:43.288Z,18.80
2022-08-07T09:44:58.468Z,18.90
2022-08-07T09:48:00.023Z,19.00
2022-08-07T09:50:26.439Z,19.10
2022-08-07T09:53:00.838Z,19.10
2022-08-07T09:56:02.678Z,19.20
2022-08-07T09:58:36.260Z,19.30
2022-08-07T10:01:51.523Z,19.40
2022-08-07T10:04:28.195Z,19.30
2022-08-07T10:07:25.734Z,19.40
2022-08-07T10:10:00.355Z,19.50
2022-08-07T10:12:53.138Z,19.70
2022-08-07T10:15:37.662Z,19.80
2022-08-07T10:18:11.909Z,19.90
2022-08-07T10:20:57.647Z,20.00
2022-08-07T10:24:04.971Z,20.00
2022-08-07T10:26:35.710Z,20.00
2022-08-07T10:29:21.266Z,20.10
2022-08-07T10:31:56.818Z,20.20
2022-08-07T10:34:32.287Z,20.00
2022-08-07T10:37:10.274Z,20.00
2022-08-07T10:40:05.048Z,20.10
2022-08-07T10:42:54.177Z,20.10
2022-08-07T10:45:44.921Z,20.10
2022-08-07T10:48:36.256Z,20.10
2022-08-07T10:51:16.750Z,20.20
2022-08-07T10:54:03.811Z,20.20
2022-08-07T10:56:49.429Z,20.40
2022-08-07T10:59:30.461Z,20.40
2022-08-07T11:02:04.691Z,20.40
2022-08-07T11:04:59.365Z,20.40
2022-08-07T11:07:58.732Z,20.40
2022-08-07T11:10:24.325Z,20.30
2022-08-07T11:13:02.059Z,20.30
2022-08-07T11:15:32.330Z,20.20
2022-08-07T11:18:03.558Z,20.20
2022-08-07T11:20:43.320Z,20.20
2022-08-07T11:23:36.429Z,20.20
2022-08-07T11:26:11.256Z,20.20
2022-08-07T11:29:00.262Z,20.20
2022-08-07T11:31:37.352Z,20.20
2022-08-07T11:34:10.223Z,20.20
2022-08-07T11:36:37.962Z,20.20
2022-08-07T11:39:23.722Z,20.20
2022-08-07T11:42:18.707Z,20.30
2022-08-07T11:45:04.677Z,20.40
2022-08-07T11:47:39.216Z,20.60
2022-08-07T11:50:32.840Z,20.60
2022-08-07T11:53:10.183Z,20.70
2022-08-07T11:56:09.202Z,20.60
2022-08-07T11:58:38.926Z,20.40
2022-08-07T12:01:07.047Z,20.40
2022-08-07T12:03:45.631Z,20.30
2022-08-07T12:06:39.959Z,20.20
2022-08-07T12:09:31.709Z,20.30
2022-08-07T12:12:10.395Z,20.30
2022-08-07T12:14:51.427Z,20.20
2022-08-07T12:17:24.637Z,20.20
2022-08-07T12:20:04.906Z,20.20
2022-08-07T12:22:58.485Z,20.20
2022-08-07T12:26:03.422Z,20.20
2022-08-07T12:28:49.601Z,20.20
2022-08-07T12:31:52.905Z,20.10
2022-08-07T12:34:16.227Z,20.10
2022-08-07T12:36:50.045Z,20.10
2022-08-07T12:39:41.932Z,20.20
2022-08-07T12:42:09.053Z,20.20
2022-08-07T12:44:42.996Z,20.20
2022-08-07T12:47:30.655Z,20.30
2022-08-07T12:50:05.087Z,20.40
2022-08-07T12:52:59.895Z,20.40
2022-08-07T12:56:02.417Z,20.50
2022-08-07T12:58:35.556Z,20.50
2022-08-07T13:01:02.594Z,20.50
2022-08-07T13:04:02.528Z,20.50
2022-08-07T13:06:30.887Z,20.50
2022-08-07T13:10:21.920Z,20.50
2022-08-07T13:12:18.900Z,20.40
2022-08-07T13:15:05.974Z,20.60
2022-08-07T13:17:41.111Z,20.50
2022-08-07T13:20:18.927Z,20.60
2022-08-07T13:22:53.535Z,20.70
2022-08-07T13:25:30.973Z,20.70
2022-08-07T13:28:11.141Z,20.70
2022-08-07T13:30:48.969Z,20.70
2022-08-07T13:34:30.139Z,20.70
2022-08-07T13:36:21.521Z,20.60
2022-08-07T13:38:58.951Z,20.60
2022-08-07T13:41:32.160Z,20.60
2022-08-07T13:44:02.331Z,20.70
2022-08-07T13:46:36.536Z,20.70
2022-08-07T13:49:08.945Z,20.80
2022-08-07T13:52:22.201Z,20.80
2022-08-07T13:54:42.223Z,20.70
2022-08-07T13:57:24.208Z,20.70
2022-08-07T13:59:55.770Z,20.60
2022-08-07T14:02:29.782Z,20.60
2022-08-07T14:05:04.226Z,20.60
2022-08-07T14:07:32.485Z,20.60
2022-08-07T14:10:17.781Z,20.50
2022-08-07T14:12:55.799Z,20.50
2022-08-07T14:15:36.100Z,20.50
2022-08-07T14:18:27.691Z,20.50
2022-08-07T14:20:54.579Z,20.50
2022-08-07T14:23:31.392Z,20.50
2022-08-07T14:26:28.239Z,20.60
2022-08-07T14:29:02.929Z,20.50
2022-08-07T14:34:29.265Z,20.40
2022-08-07T14:36:58.179Z,20.30
2022-08-07T14:40:16.165Z,20.40
2022-08-07T14:42:19.699Z,20.30
2022-08-07T14:44:52.479Z,20.30
2022-08-07T14:47:20.433Z,20.20
2022-08-07T14:49:57.020Z,20.30
2022-08-07T14:52:28.764Z,20.40
2022-08-07T14:54:58.532Z,20.50
2022-08-07T14:57:54.639Z,20.70
2022-08-07T15:00:29.655Z,20.70
2022-08-07T15:03:19.553Z,20.50
2022-08-07T15:05:54.335Z,20.30
2022-08-07T15:08:23.799Z,20.20
2022-08-07T15:11:10.893Z,20.30
2022-08-07T15:13:59.510Z,20.30
2022-08-07T15:16:54.870Z,20.30
2022-08-07T15:22:16.447Z,20.10
2022-08-07T15:25:13.025Z,20.00
2022-08-07T15:28:32.339Z,20.00
2022-08-07T15:30:31.898Z,20.10
2022-08-07T15:36:01.313Z,20.00
2022-08-07T15:38:51.636Z,20.00
2022-08-07T15:44:11.611Z,19.80
2022-08-07T15:46:51.709Z,19.70
2022-08-07T15:52:13.674Z,19.70
2022-08-07T15:54:43.399Z,19.60
2022-08-07T15:57:27.991Z,19.70
2022-08-07T16:00:04.156Z,19.70
2022-08-07T16:02:39.898Z,19.80
2022-08-07T16:05:15.570Z,19.80
2022-08-07T16:08:31.125Z,19.80
2022-08-07T16:10:33.205Z,19.80
2022-08-07T16:13:18.039Z,19.90
2022-08-07T16:16:02.268Z,20.00
2022-08-07T16:18:49.847Z,20.00
2022-08-07T16:22:04.209Z,19.90
2022-08-07T16:24:34.452Z,19.80
2022-08-07T16:27:39.746Z,19.70
2022-08-07T16:30:31.844Z,19.60
2022-08-07T16:34:02.031Z,19.50
2022-08-07T16:36:31.175Z,19.50
2022-08-07T16:39:40.656Z,19.50
2022-08-07T16:42:12.649Z,19.50
2022-08-07T16:45:14.648Z,19.50
2022-08-07T16:48:29.943Z,19.40
2022-08-07T16:51:54.102Z,19.30
2022-08-07T16:54:22.877Z,19.30
2022-08-07T16:57:15.751Z,19.20
2022-08-07T17:00:01.883Z,19.10
2022-08-07T17:02:53.350Z,19.20
2022-08-07T17:06:19.897Z,19.10
2022-08-07T17:09:10.728Z,19.20
2022-08-07T17:12:04.404Z,19.20
2022-08-07T17:14:52.090Z,19.20
2022-08-07T17:17:46.538Z,19.20
2022-08-07T17:20:31.114Z,19.10
2022-08-07T17:23:02.747Z,19.00
2022-08-07T17:25:51.096Z,19.00
2022-08-07T17:28:49.886Z,18.80
2022-08-07T17:31:36.017Z,18.80
2022-08-07T17:34:33.686Z,18.60
2022-08-07T17:37:08.975Z,18.60
2022-08-07T17:40:05.508Z,18.50
2022-08-07T17:43:18.054Z,18.40
2022-08-07T17:45:55.534Z,18.40
2022-08-07T17:48:31.346Z,18.30
2022-08-07T17:51:08.344Z,18.30
2022-08-07T17:54:00.934Z,18.30
2022-08-07T17:56:49.430Z,18.20
2022-08-07T17:59:19.962Z,18.20
2022-08-07T18:01:57.924Z,18.10
2022-08-07T18:04:34.747Z,18.10
2022-08-07T18:07:20.351Z,18.10
2022-08-07T18:10:06.310Z,18.00
2022-08-07T18:12:53.261Z,18.10
2022-08-07T18:15:32.824Z,18.00
2022-08-07T18:18:45.568Z,18.00
2022-08-07T18:21:37.300Z,18.00
2022-08-07T18:24:07.485Z,18.00
2022-08-07T18:26:38.958Z,17.90
2022-08-07T18:30:06.592Z,17.90
2022-08-07T18:32:38.160Z,17.90
2022-08-07T18:35:11.867Z,17.80
2022-08-07T18:38:59.710Z,17.80
2022-08-07T18:41:09.165Z,17.80
2022-08-07T18:43:49.647Z,17.80
2022-08-07T18:46:37.054Z,17.70
2022-08-07T18:50:30.074Z,17.60
2022-08-07T18:52:40.818Z,17.50
2022-08-07T18:55:41.153Z,17.40
2022-08-07T18:57:58.721Z,17.40
2022-08-07T19:00:43.821Z,17.40
2022-08-07T19:03:39.012Z,17.30
2022-08-07T19:06:16.160Z,17.20
2022-08-07T19:08:58.974Z,17.20
2022-08-07T19:12:04.566Z,17.20
2022-08-07T19:14:51.177Z,17.10
2022-08-07T19:17:59.463Z,17.00
2022-08-07T19:20:28.895Z,17.00
2022-08-07T19:23:18.864Z,16.90
2022-08-07T19:26:24.871Z,16.90
2022-08-07T19:30:54.581Z,16.90
2022-08-07T19:32:07.798Z,16.90
2022-08-07T19:34:33.740Z,16.90
2022-08-07T19:37:10.232Z,16.80
2022-08-07T19:39:57.562Z,16.80
2022-08-07T19:42:39.881Z,16.80
2022-08-07T19:45:09.741Z,16.70
2022-08-07T19:47:38.436Z,16.70
2022-08-07T19:50:41.103Z,16.70
2022-08-07T19:52:59.042Z,16.60
2022-08-07T19:55:57.483Z,16.50
2022-08-07T19:58:18.393Z,16.50
2022-08-07T20:00:56.790Z,16.50
2022-08-07T20:03:34.925Z,16.40
2022-08-07T20:06:04.606Z,16.50
2022-08-07T20:08:37.742Z,16.40
2022-08-07T20:11:15.164Z,16.40
2022-08-07T20:14:00.023Z,16.40
2022-08-07T20:16:35.092Z,16.30
2022-08-07T20:19:10.457Z,16.30
2022-08-07T20:21:42.092Z,16.30
2022-08-07T20:24:16.842Z,16.20
2022-08-07T20:26:50.134Z,16.20
2022-08-07T20:29:49.187Z,16.20
2022-08-07T20:32:11.478Z,16.10
2022-08-07T20:34:51.647Z,16.00
2022-08-07T20:37:55.665Z,15.90
2022-08-07T20:40:33.002Z,15.80
2022-08-07T20:43:02.607Z,15.70
2022-08-07T20:46:26.043Z,15.70
2022-08-07T20:48:28.651Z,15.70
2022-08-07T20:51:01.515Z,15.70
2022-08-07T20:54:03.109Z,15.70
2022-08-07T20:56:16.741Z,15.60
2022-08-07T20:58:53.728Z,15.60
2022-08-07T21:01:23.198Z,15.60
2022-08-07T21:04:18.694Z,15.60
2022-08-07T21:06:42.460Z,15.50
2022-08-07T21:09:24.627Z,15.60
2022-08-07T21:11:57.858Z,15.50
2022-08-07T21:14:32.756Z,15.50
2022-08-07T21:18:00.399Z,15.50
2022-08-07T21:19:51.837Z,15.50
2022-08-07T21:22:34.777Z,15.40
2022-08-07T21:25:12.124Z,15.40
2022-08-07T21:28:01.735Z,15.30
2022-08-07T21:30:35.205Z,15.30
2022-08-07T21:33:05.191Z,15.20
2022-08-07T21:36:04.780Z,15.20
2022-08-07T21:38:28.761Z,15.20
2022-08-07T21:40:59.667Z,15.20
2022-08-07T21:43:47.587Z,15.10
2022-08-07T21:46:32.470Z,15.10
2022-08-07T21:49:21.147Z,15.10
2022-08-07T21:51:59.014Z,15.10
2022-08-07T21:54:29.140Z,15.10
2022-08-07T21:57:06.098Z,15.00
2022-08-07T22:00:09.109Z,15.00
2022-08-07T22:02:53.561Z,15.00
2022-08-07T22:05:45.710Z,15.00
2022-08-07T22:08:12.268Z,14.90
2022-08-07T22:10:42.378Z,14.90
2022-08-07T22:13:13.656Z,14.80
2022-08-07T22:16:39.685Z,14.80
2022-08-07T22:18:46.128Z,14.80
2022-08-07T22:21:19.471Z,14.80
2022-08-07T22:23:56.844Z,14.80
2022-08-07T22:26:44.299Z,14.80
2022-08-07T22:29:14.656Z,14.80
2022-08-07T22:31:45.724Z,14.80
2022-08-07T22:34:52.936Z,14.70
2022-08-07T22:37:20.200Z,14.60
2022-08-07T22:40:05.052Z,14.50
2022-08-07T22:42:33.972Z,14.50
2022-08-07T22:45:04.137Z,14.50
2022-08-07T22:47:40.793Z,14.50
2022-08-07T22:50:33.372Z,14.50
2022-08-07T22:53:00.901Z,14.50
2022-08-07T22:55:43.397Z,14.60
2022-08-07T22:58:16.559Z,14.60
2022-08-07T23:00:53.270Z,14.60
2022-08-07T23:03:20.587Z,14.50
2022-08-07T23:06:15.529Z,14.50
2022-08-07T23:10:00.977Z,14.50
2022-08-07T23:11:59.086Z,14.40
2022-08-07T23:14:30.572Z,14.50
2022-08-07T23:16:58.341Z,14.40
2022-08-07T23:19:51.195Z,14.40
2022-08-07T23:22:37.744Z,14.40
2022-08-07T23:25:14.897Z,14.40
2022-08-07T23:28:21.878Z,14.40
2022-08-07T23:31:05.900Z,14.40
2022-08-07T23:34:22.322Z,14.40
2022-08-07T23:36:38.432Z,14.30
2022-08-07T23:39:10.127Z,14.40
2022-08-07T23:42:05.057Z,14.30
2022-08-07T23:44:51.794Z,14.30
2022-08-07T23:47:42.143Z,14.30
2022-08-07T23:50:16.612Z,14.30
2022-08-07T23:53:00.214Z,14.30
2022-08-07T23:55:51.947Z,14.20
2022-08-07T23:58:31.931Z,14.20
